Time;durP1;ratioP1;P1;durP2;ratioP2;P2;SDS_P1;SDS_P2;PMS_P1;PMS_P2;Temp;Humidity;BMP_temperature;BMP_pressure;BME280_temperature;BME280_humidity;BME280_pressure;Samples;Min_cycle;Max_cycle;Signal;HPM_P1;HPM_P2
2021/08/21 00:02:16;;;;;;;6.68;6.07;;;18.00;99.90;;;;;;5052453;28;20033;-73
2021/08/21 00:04:42;;;;;;;7.38;6.13;;;17.90;99.90;;;;;;5053668;28;20029;-73
2021/08/21 00:07:07;;;;;;;7.38;6.20;;;17.80;99.90;;;;;;5053454;28;20108;-73
2021/08/21 00:09:37;;;;;;;11.15;7.22;;;17.80;99.90;;;;;;5053604;28;20025;-73
2021/08/21 00:12:03;;;;;;;6.78;6.18;;;17.80;99.90;;;;;;5053514;28;20496;-72
2021/08/21 00:14:29;;;;;;;7.25;6.57;;;17.90;99.90;;;;;;5053571;28;20021;-73
2021/08/21 00:16:55;;;;;;;9.45;7.82;;;17.90;99.90;;;;;;5053421;28;20124;-73
2021/08/21 00:19:20;;;;;;;7.28;6.68;;;18.10;99.90;;;;;;5053534;28;20017;-73
2021/08/21 00:21:48;;;;;;;9.15;6.20;;;18.10;99.90;;;;;;5052011;28;20025;-73
2021/08/21 00:24:13;;;;;;;6.72;6.13;;;17.90;99.90;;;;;;5053083;28;20041;-74
2021/08/21 00:26:39;;;;;;;11.00;6.43;;;17.80;99.90;;;;;;5054842;28;20448;-72
2021/08/21 00:29:04;;;;;;;9.20;6.00;;;17.80;99.90;;;;;;5085123;28;20073;-73
2021/08/21 00:31:30;;;;;;;10.85;6.60;;;17.70;99.90;;;;;;5093374;28;20099;-73
2021/08/21 00:33:55;;;;;;;7.22;6.53;;;17.80;99.90;;;;;;5089762;28;20024;-74
2021/08/21 00:36:21;;;;;;;9.48;6.45;;;17.80;99.90;;;;;;5073066;28;20542;-73
2021/08/21 00:38:46;;;;;;;7.32;6.40;;;17.80;99.90;;;;;;5071587;28;20613;-73
2021/08/21 00:41:12;;;;;;;7.88;7.05;;;17.70;99.90;;;;;;5073048;28;20024;-73
2021/08/21 00:43:39;;;;;;;7.88;6.43;;;17.70;99.90;;;;;;5073327;28;20031;-73
2021/08/21 00:46:05;;;;;;;6.45;5.75;;;17.60;99.90;;;;;;5072825;28;20484;-72
2021/08/21 00:48:31;;;;;;;6.93;6.30;;;17.50;99.90;;;;;;5071751;28;20035;-73
2021/08/21 00:51:01;;;;;;;6.85;5.95;;;17.50;99.90;;;;;;5072919;28;20032;-72
2021/08/21 00:53:26;;;;;;;8.50;7.05;;;17.50;99.90;;;;;;5071581;28;20116;-72
2021/08/21 00:55:52;;;;;;;8.23;5.68;;;17.40;99.90;;;;;;5073215;28;20108;-72
2021/08/21 00:58:20;;;;;;;6.13;5.53;;;17.40;99.90;;;;;;5072218;28;20020;-73
2021/08/21 01:00:45;;;;;;;5.93;5.28;;;17.30;99.90;;;;;;5072123;28;20021;-74
2021/08/21 01:03:11;;;;;;;6.80;5.15;;;17.30;99.90;;;;;;5071409;28;20029;-74
2021/08/21 01:05:37;;;;;;;6.50;5.90;;;17.20;99.90;;;;;;5072429;28;20107;-73
2021/08/21 01:08:03;;;;;;;7.32;5.80;;;17.20;99.90;;;;;;5072504;28;20032;-73
2021/08/21 01:10:28;;;;;;;8.90;5.53;;;17.40;99.90;;;;;;5073132;28;20036;-73
2021/08/21 01:12:55;;;;;;;6.55;4.82;;;17.30;99.90;;;;;;5076599;28;20029;-74
2021/08/21 01:15:22;;;;;;;6.03;5.28;;;17.30;99.90;;;;;;5088058;28;20008;-72
2021/08/21 01:17:50;;;;;;;5.30;4.72;;;17.30;99.90;;;;;;5097905;28;20023;-71
2021/08/21 01:20:16;;;;;;;8.25;5.45;;;17.30;99.90;;;;;;5098100;28;20036;-72
2021/08/21 01:22:42;;;;;;;6.50;5.90;;;17.20;99.90;;;;;;5094555;28;20020;-71
2021/08/21 01:25:16;;;;;;;7.05;5.78;;;17.20;99.90;;;;;;5097802;28;20076;-71
2021/08/21 01:27:42;;;;;;;7.10;6.40;;;17.20;99.90;;;;;;5102549;28;20055;-71
2021/08/21 01:30:09;;;;;;;8.25;5.68;;;17.10;99.90;;;;;;5109618;28;20004;-71
2021/08/21 01:32:34;;;;;;;7.78;6.10;;;17.00;99.90;;;;;;5118006;28;20026;-71
2021/08/21 01:35:00;;;;;;;7.10;6.03;;;16.90;99.90;;;;;;5113126;28;20029;-70
2021/08/21 01:37:26;;;;;;;7.45;6.45;;;16.90;99.90;;;;;;5101035;28;20036;-71
2021/08/21 01:39:54;;;;;;;9.07;6.78;;;16.90;99.90;;;;;;5097532;28;20068;-72
2021/08/21 01:42:21;;;;;;;8.45;5.97;;;16.90;99.90;;;;;;5097385;28;20048;-72
2021/08/21 01:44:47;;;;;;;8.02;6.25;;;16.90;99.90;;;;;;5095382;28;20078;-73
2021/08/21 01:47:13;;;;;;;8.18;5.60;;;16.90;99.90;;;;;;5073170;28;20082;-72
2021/08/21 01:49:39;;;;;;;8.45;6.13;;;17.00;99.90;;;;;;5072649;28;20055;-73
2021/08/21 01:52:05;;;;;;;8.70;6.38;;;17.00;99.90;;;;;;5072458;28;20021;-74
2021/08/21 01:54:32;;;;;;;9.15;6.53;;;17.10;99.90;;;;;;5071188;28;20029;-73
2021/08/21 01:57:01;;;;;;;9.30;6.35;;;17.10;99.90;;;;;;5075722;28;20017;-74
2021/08/21 01:59:31;;;;;;;7.82;6.45;;;17.10;99.90;;;;;;5084561;28;20038;-72
2021/08/21 02:01:58;;;;;;;10.98;7.00;;;17.20;99.90;;;;;;5094167;28;20043;-72
2021/08/21 02:04:24;;;;;;;7.10;6.43;;;17.40;99.90;;;;;;5097407;28;20037;-72
2021/08/21 02:06:50;;;;;;;8.63;6.85;;;17.50;99.90;;;;;;5095508;28;20021;-71
2021/08/21 02:09:19;;;;;;;8.38;7.53;;;17.40;99.90;;;;;;5096706;28;20031;-71
2021/08/21 02:11:46;;;;;;;7.72;6.90;;;17.40;99.90;;;;;;5099407;28;20080;-72
2021/08/21 02:14:12;;;;;;;7.82;7.00;;;17.30;99.90;;;;;;5101313;28;20028;-72
2021/08/21 02:16:38;;;;;;;8.23;7.25;;;17.50;99.90;;;;;;5101074;28;20031;-72
2021/08/21 02:19:04;;;;;;;7.13;6.43;;;17.50;99.90;;;;;;5100579;28;20021;-72
2021/08/21 02:21:30;;;;;;;7.50;6.78;;;17.50;99.90;;;;;;5091111;28;20555;-72
2021/08/21 02:23:58;;;;;;;10.57;7.82;;;17.50;99.90;;;;;;5079740;28;20031;-73
2021/08/21 02:26:27;;;;;;;7.35;6.65;;;17.40;99.90;;;;;;5078939;28;20025;-73
2021/08/21 02:28:53;;;;;;;8.38;7.20;;;17.40;99.90;;;;;;5087826;28;20033;-73
2021/08/21 02:31:20;;;;;;;8.93;7.90;;;17.20;99.90;;;;;;5099004;28;20111;-73
2021/08/21 02:33:45;;;;;;;11.00;7.75;;;17.10;99.90;;;;;;5096693;28;20024;-74
2021/08/21 02:36:12;;;;;;;9.02;7.05;;;17.00;99.90;;;;;;5095734;28;20043;-73
2021/08/21 02:38:43;;;;;;;8.13;7.30;;;16.90;99.90;;;;;;5094563;28;20111;-73
2021/08/21 02:41:09;;;;;;;8.23;7.45;;;16.80;99.90;;;;;;5095719;28;20020;-73
2021/08/21 02:43:34;;;;;;;9.55;6.35;;;16.70;99.90;;;;;;5096353;28;20399;-73
2021/08/21 02:46:00;;;;;;;9.90;7.03;;;16.70;99.90;;;;;;5094305;28;20149;-73
2021/08/21 02:48:26;;;;;;;9.75;7.85;;;16.70;99.90;;;;;;5087033;28;20032;-73
2021/08/21 02:50:52;;;;;;;7.05;6.32;;;16.60;99.90;;;;;;5064986;28;20542;-73
2021/08/21 02:53:18;;;;;;;8.73;6.97;;;16.60;99.90;;;;;;5073820;28;20162;-73
2021/08/21 02:55:44;;;;;;;9.65;6.72;;;16.50;99.90;;;;;;5074854;28;20451;-72
2021/08/21 02:58:10;;;;;;;7.72;6.60;;;16.40;99.90;;;;;;5074836;28;20020;-73
2021/08/21 03:00:37;;;;;;;10.32;7.20;;;16.40;99.90;;;;;;5074870;28;20077;-74
2021/08/21 03:03:02;;;;;;;12.30;7.13;;;16.30;99.90;;;;;;5086405;28;20020;-73
2021/08/21 03:05:28;;;;;;;7.43;6.57;;;16.30;99.90;;;;;;5095199;28;20078;-74
2021/08/21 03:07:53;;;;;;;8.27;6.95;;;16.30;99.90;;;;;;5094993;28;20034;-73
2021/08/21 03:10:19;;;;;;;8.35;6.65;;;16.30;99.90;;;;;;5095047;28;20384;-73
2021/08/21 03:12:45;;;;;;;8.82;6.65;;;16.30;99.90;;;;;;5093698;28;20108;-73
2021/08/21 03:15:10;;;;;;;7.97;7.18;;;16.20;99.90;;;;;;5094959;28;20024;-73
2021/08/21 03:17:36;;;;;;;10.45;7.90;;;16.20;99.90;;;;;;5095670;28;20024;-73
2021/08/21 03:20:03;;;;;;;9.02;7.50;;;16.20;99.90;;;;;;5095474;28;20024;-73
2021/08/21 03:22:29;;;;;;;9.20;7.88;;;16.20;99.90;;;;;;5093885;28;20020;-72
2021/08/21 03:24:54;;;;;;;13.05;8.20;;;16.20;99.90;;;;;;5095699;28;20024;-73
2021/08/21 03:27:20;;;;;;;8.80;7.22;;;16.20;99.90;;;;;;5095783;28;20035;-73
2021/08/21 03:29:45;;;;;;;9.40;7.18;;;16.20;99.90;;;;;;5096665;28;20032;-73
2021/08/21 03:32:11;;;;;;;12.45;7.38;;;16.10;99.90;;;;;;5099166;28;20020;-73
2021/08/21 03:34:38;;;;;;;10.25;7.97;;;16.10;99.90;;;;;;5100279;28;20035;-73
2021/08/21 03:37:04;;;;;;;8.10;6.45;;;16.00;99.90;;;;;;5093026;28;20490;-73
2021/08/21 03:39:30;;;;;;;10.18;7.90;;;16.00;99.90;;;;;;5090909;28;20747;-74
2021/08/21 03:41:55;;;;;;;12.43;9.18;;;16.00;99.90;;;;;;5093417;28;20032;-72
2021/08/21 03:44:21;;;;;;;9.07;7.90;;;16.00;99.90;;;;;;5094205;28;20046;-73
2021/08/21 03:46:46;;;;;;;13.07;8.52;;;16.00;99.90;;;;;;5094037;28;20077;-72
2021/08/21 03:49:12;;;;;;;10.15;8.48;;;16.00;99.90;;;;;;5094113;28;20032;-73
2021/08/21 03:51:37;;;;;;;9.00;7.88;;;16.00;99.90;;;;;;5092980;28;20032;-73
2021/08/21 03:54:03;;;;;;;10.77;8.20;;;16.00;99.90;;;;;;5094043;28;20038;-74
2021/08/21 03:56:28;;;;;;;11.48;9.07;;;15.90;99.90;;;;;;5094034;28;20020;-72
2021/08/21 03:58:54;;;;;;;9.85;8.43;;;15.90;99.90;;;;;;5093717;28;20039;-73
2021/08/21 04:01:19;;;;;;;11.45;8.88;;;15.90;99.90;;;;;;5089419;28;20369;-73
2021/08/21 04:03:45;;;;;;;8.98;7.82;;;15.80;99.90;;;;;;5085449;28;20016;-73
2021/08/21 04:06:11;;;;;;;12.43;7.50;;;15.80;99.90;;;;;;5093875;28;20030;-74
2021/08/21 04:08:37;;;;;;;10.98;7.22;;;15.80;99.90;;;;;;5092422;28;20118;-73
2021/08/21 04:11:03;;;;;;;11.60;7.82;;;15.80;99.90;;;;;;5093905;28;20042;-74
2021/08/21 04:13:28;;;;;;;10.43;7.90;;;15.80;99.90;;;;;;5093547;28;20024;-73
2021/08/21 04:15:55;;;;;;;9.38;7.45;;;15.70;99.90;;;;;;5093701;28;20100;-73
2021/08/21 04:18:20;;;;;;;7.35;6.70;;;15.70;99.90;;;;;;5093516;28;20077;-72
2021/08/21 04:20:46;;;;;;;10.27;7.50;;;15.70;99.90;;;;;;5092203;28;20024;-73
2021/08/21 04:23:12;;;;;;;8.90;7.70;;;15.70;99.90;;;;;;5093631;28;20020;-72
2021/08/21 04:25:37;;;;;;;12.52;7.82;;;15.70;99.90;;;;;;5093255;28;20557;-72
2021/08/21 04:28:03;;;;;;;9.55;8.45;;;15.70;99.90;;;;;;5093381;28;20593;-72
2021/08/21 04:30:28;;;;;;;9.68;7.03;;;15.70;99.90;;;;;;5093250;28;20035;-73
2021/08/21 04:32:54;;;;;;;15.18;9.30;;;15.70;99.90;;;;;;5091814;28;20107;-74
2021/08/21 04:35:20;;;;;;;13.80;7.90;;;15.80;99.90;;;;;;5092504;28;20400;-71
2021/08/21 04:37:45;;;;;;;10.65;7.65;;;15.80;99.90;;;;;;5092007;28;20062;-73
2021/08/21 04:40:11;;;;;;;8.85;7.72;;;15.80;99.90;;;;;;5091987;28;20035;-73
2021/08/21 04:42:38;;;;;;;10.80;6.97;;;15.90;99.90;;;;;;5093389;28;20505;-73
2021/08/21 04:45:05;;;;;;;7.10;6.45;;;16.00;99.90;;;;;;5091739;28;20031;-73
2021/08/21 04:47:31;;;;;;;7.60;6.15;;;16.00;99.90;;;;;;5091544;28;20024;-73
2021/08/21 04:49:56;;;;;;;7.85;6.55;;;16.00;99.90;;;;;;5092977;28;20020;-73
2021/08/21 04:52:23;;;;;;;16.13;8.48;;;16.10;99.90;;;;;;5093100;28;20020;-73
2021/08/21 04:54:49;;;;;;;8.63;6.35;;;16.20;99.90;;;;;;5092790;28;20131;-73
2021/08/21 04:57:15;;;;;;;8.27;5.55;;;16.20;99.90;;;;;;5092828;28;20031;-74
2021/08/21 04:59:41;;;;;;;6.68;5.95;;;16.30;99.90;;;;;;5092722;28;20032;-73
2021/08/21 05:02:07;;;;;;;10.20;7.50;;;16.60;99.90;;;;;;5084291;28;20502;-73
2021/08/21 05:04:32;;;;;;;6.72;5.78;;;16.90;99.90;;;;;;5088508;28;20171;-74
2021/08/21 05:06:58;;;;;;;6.82;6.05;;;17.40;99.90;;;;;;5092562;28;20027;-74
2021/08/21 05:09:23;;;;;;;6.43;5.82;;;17.60;99.90;;;;;;5091449;28;20032;-73
2021/08/21 05:11:49;;;;;;;6.57;5.85;;;18.10;99.90;;;;;;5092568;28;20028;-73
2021/08/21 05:14:15;;;;;;;6.18;4.80;;;18.60;99.90;;;;;;5092525;28;20484;-74
2021/08/21 05:16:43;;;;;;;10.60;5.75;;;18.90;99.90;;;;;;5092271;28;20422;-74
2021/08/21 05:19:24;;;;;;;7.68;5.47;;;19.30;99.90;;;;;;5093002;28;20019;-74
2021/08/21 05:21:52;;;;;;;6.15;5.07;;;19.50;99.90;;;;;;5092481;28;20048;-73
2021/08/21 05:24:18;;;;;;;6.72;5.57;;;19.50;99.90;;;;;;5092363;28;20067;-73
2021/08/21 05:26:47;;;;;;;7.22;5.20;;;19.90;99.90;;;;;;5078791;28;20113;-73
2021/08/21 05:29:16;;;;;;;4.80;4.38;;;20.00;99.90;;;;;;5070866;28;20058;-73
2021/08/21 05:31:42;;;;;;;5.72;5.13;;;20.30;99.90;;;;;;5071918;28;20480;-74
2021/08/21 05:34:12;;;;;;;5.78;4.82;;;20.10;99.90;;;;;;5073451;28;20036;-73
2021/08/21 05:36:38;;;;;;;5.78;4.80;;;19.90;99.90;;;;;;5070653;28;20477;-73
2021/08/21 05:39:07;;;;;;;10.45;5.55;;;19.60;99.90;;;;;;5071988;28;20082;-73
2021/08/21 05:41:33;;;;;;;9.00;5.57;;;19.50;99.90;;;;;;5071893;28;20024;-73
2021/08/21 05:43:59;;;;;;;5.53;5.00;;;19.30;99.90;;;;;;5070553;28;20028;-73
2021/08/21 05:46:24;;;;;;;5.60;5.10;;;19.00;99.90;;;;;;5071805;28;20024;-73
2021/08/21 05:48:50;;;;;;;6.55;5.55;;;19.00;99.90;;;;;;5064358;28;20025;-73
2021/08/21 05:51:15;;;;;;;6.90;5.40;;;19.30;99.90;;;;;;5054126;28;20029;-73
2021/08/21 05:53:41;;;;;;;6.85;5.10;;;19.40;99.90;;;;;;5051614;28;20146;-73
2021/08/21 05:56:07;;;;;;;6.72;5.22;;;19.30;99.90;;;;;;5050464;28;20025;-75
2021/08/21 05:58:32;;;;;;;6.32;4.47;;;19.00;99.90;;;;;;5050348;28;20025;-73
2021/08/21 06:00:58;;;;;;;6.75;5.10;;;19.10;99.90;;;;;;5069812;28;20067;-74
2021/08/21 06:03:23;;;;;;;5.38;4.85;;;19.30;99.90;;;;;;5075845;28;20028;-73
2021/08/21 06:05:49;;;;;;;5.65;4.88;;;18.90;99.90;;;;;;5072167;28;20039;-73
2021/08/21 06:08:15;;;;;;;7.75;5.30;;;18.80;99.90;;;;;;5070503;28;20036;-72
2021/08/21 06:10:42;;;;;;;5.65;5.15;;;18.90;99.90;;;;;;5077828;28;20029;-73
2021/08/21 06:13:07;;;;;;;5.45;4.90;;;18.70;99.90;;;;;;5079241;28;20024;-73
2021/08/21 06:15:38;;;;;;;8.13;5.45;;;18.40;99.90;;;;;;5090409;28;20506;-74
2021/08/21 06:18:04;;;;;;;7.70;5.68;;;18.70;99.90;;;;;;5090443;28;20396;-74
2021/08/21 06:20:29;;;;;;;7.88;5.72;;;18.60;99.90;;;;;;5091742;28;20028;-75
2021/08/21 06:22:55;;;;;;;7.88;5.63;;;18.50;99.90;;;;;;5091971;28;20099;-74
2021/08/21 06:25:21;;;;;;;6.35;5.68;;;18.70;99.90;;;;;;5091709;28;20502;-74
2021/08/21 06:27:46;;;;;;;8.35;5.30;;;19.00;99.90;;;;;;5091789;28;20053;-75
2021/08/21 06:30:12;;;;;;;8.02;5.93;;;18.90;99.90;;;;;;5078246;28;20395;-75
2021/08/21 06:32:38;;;;;;;5.95;5.35;;;19.00;99.90;;;;;;5071561;28;20021;-75
2021/08/21 06:35:05;;;;;;;5.97;5.47;;;18.90;99.90;;;;;;5071139;28;20025;-75
2021/08/21 06:37:30;;;;;;;6.45;5.68;;;18.70;99.90;;;;;;5071502;28;20021;-74
2021/08/21 06:39:56;;;;;;;6.18;4.95;;;19.20;99.90;;;;;;5070269;28;20028;-74
2021/08/21 06:42:22;;;;;;;5.72;5.22;;;19.40;99.90;;;;;;5071628;28;20106;-74
2021/08/21 06:44:47;;;;;;;5.40;4.93;;;19.50;99.90;;;;;;5071384;28;20020;-75
2021/08/21 06:47:13;;;;;;;5.95;5.45;;;19.20;99.90;;;;;;5071657;28;20477;-82
2021/08/21 06:49:38;;;;;;;6.03;5.47;;;18.90;99.90;;;;;;5062746;28;20451;-76
2021/08/21 06:52:04;;;;;;;7.13;5.40;;;19.10;99.90;;;;;;5051362;28;20056;-76
2021/08/21 06:54:30;;;;;;;6.03;5.43;;;19.70;99.90;;;;;;5055917;28;20111;-82
2021/08/21 06:56:56;;;;;;;5.80;5.28;;;19.40;99.90;;;;;;5088700;28;20522;-75
2021/08/21 06:59:22;;;;;;;7.40;5.82;;;19.40;99.90;;;;;;5054774;28;20063;-77
2021/08/21 07:01:47;;;;;;;5.63;5.05;;;19.30;99.90;;;;;;5062412;28;20017;-75
2021/08/21 07:04:14;;;;;;;6.78;5.65;;;19.30;99.90;;;;;;5086015;28;20032;-76
2021/08/21 07:06:39;;;;;;;5.70;4.93;;;19.40;99.90;;;;;;5095661;28;20031;-75
2021/08/21 07:09:05;;;;;;;11.35;5.65;;;19.60;99.90;;;;;;5074797;28;20024;-75
2021/08/21 07:11:30;;;;;;;6.20;4.95;;;19.80;99.90;;;;;;5082531;28;20391;-76
2021/08/21 07:13:56;;;;;;;4.60;4.20;;;19.90;99.90;;;;;;5085103;28;20123;-75
2021/08/21 07:16:22;;;;;;;5.07;4.40;;;20.00;99.90;;;;;;5093393;28;20021;-75
2021/08/21 07:18:48;;;;;;;4.68;4.22;;;20.20;99.90;;;;;;5094917;28;20027;-75
2021/08/21 07:21:13;;;;;;;5.53;4.50;;;20.40;99.90;;;;;;5093344;28;20056;-75
2021/08/21 07:23:39;;;;;;;6.18;4.55;;;20.70;99.90;;;;;;5094968;28;20040;-75
2021/08/21 07:26:05;;;;;;;4.82;4.40;;;20.60;99.90;;;;;;5093669;28;20048;-75
2021/08/21 07:28:31;;;;;;;6.47;4.25;;;20.50;99.90;;;;;;5094608;28;20024;-74
2021/08/21 07:30:57;;;;;;;5.15;4.65;;;20.50;99.90;;;;;;5091741;28;20028;-75
2021/08/21 07:33:22;;;;;;;6.35;4.78;;;20.90;99.90;;;;;;5093336;28;20032;-77
2021/08/21 07:35:48;;;;;;;5.13;4.63;;;21.10;99.90;;;;;;5094647;28;20020;-75
2021/08/21 07:38:13;;;;;;;5.25;4.75;;;21.30;99.90;;;;;;5095882;28;20035;-76
2021/08/21 07:40:39;;;;;;;5.32;4.82;;;21.10;99.90;;;;;;5094830;28;20012;-76
2021/08/21 07:43:04;;;;;;;4.82;4.00;;;21.20;99.90;;;;;;5094628;28;20020;-75
2021/08/21 07:45:30;;;;;;;4.80;4.32;;;21.20;99.90;;;;;;5093921;28;20480;-76
2021/08/21 07:47:56;;;;;;;6.78;4.80;;;21.30;99.90;;;;;;5094428;28;20028;-74
2021/08/21 07:50:22;;;;;;;4.90;4.40;;;21.50;99.90;;;;;;5093536;28;20541;-76
2021/08/21 07:52:48;;;;;;;5.35;4.20;;;21.70;99.90;;;;;;5094477;28;20093;-75
2021/08/21 07:55:14;;;;;;;4.50;4.10;;;21.70;99.90;;;;;;5094790;28;20396;-75
2021/08/21 07:57:39;;;;;;;4.40;4.00;;;21.80;99.90;;;;;;5094348;28;20166;-75
2021/08/21 08:00:06;;;;;;;4.40;3.95;;;21.90;99.90;;;;;;5094416;28;20028;-76
2021/08/21 08:02:31;;;;;;;5.95;4.43;;;21.70;99.90;;;;;;5054743;28;20025;-75
2021/08/21 08:04:57;;;;;;;5.07;4.68;;;21.60;99.90;;;;;;5053961;28;20029;-76
2021/08/21 08:07:23;;;;;;;4.78;4.00;;;21.50;99.90;;;;;;5054252;28;20025;-75
2021/08/21 08:09:48;;;;;;;6.80;4.13;;;21.70;99.90;;;;;;5053078;28;20074;-75
2021/08/21 08:12:14;;;;;;;5.20;4.70;;;21.70;99.90;;;;;;5053730;28;20477;-75
2021/08/21 08:14:40;;;;;;;8.68;4.35;;;22.00;99.90;;;;;;5054013;28;20481;-76
2021/08/21 08:17:05;;;;;;;4.95;4.55;;;22.10;99.90;;;;;;5054485;28;20439;-76
2021/08/21 08:19:31;;;;;;;5.30;4.15;;;22.20;99.90;;;;;;5054145;28;20414;-76
2021/08/21 08:21:56;;;;;;;4.25;3.92;;;22.40;99.90;;;;;;5052474;28;20025;-75
2021/08/21 08:24:23;;;;;;;4.50;4.10;;;22.40;99.90;;;;;;5053495;28;20476;-75
2021/08/21 08:26:49;;;;;;;4.13;3.72;;;22.70;99.90;;;;;;5052113;28;20025;-75
2021/08/21 08:29:15;;;;;;;5.10;3.90;;;22.50;99.90;;;;;;5053495;28;20032;-76
2021/08/21 08:31:41;;;;;;;4.50;3.53;;;22.50;99.90;;;;;;5052486;28;20025;-75
2021/08/21 08:34:06;;;;;;;4.07;3.67;;;22.90;99.90;;;;;;5052755;28;20112;-74
2021/08/21 08:36:32;;;;;;;8.00;3.92;;;23.10;99.90;;;;;;5053542;28;20108;-77
2021/08/21 08:38:58;;;;;;;4.38;3.50;;;23.00;99.90;;;;;;5053281;28;20033;-78
2021/08/21 08:41:24;;;;;;;4.05;3.65;;;23.10;99.90;;;;;;5052010;28;20032;-75
2021/08/21 08:43:49;;;;;;;4.47;4.05;;;23.00;99.90;;;;;;5052004;28;20025;-74
2021/08/21 08:46:22;;;;;;;4.60;4.13;;;23.00;99.90;;;;;;5052894;28;20055;-75
2021/08/21 08:48:47;;;;;;;4.30;3.90;;;23.00;99.90;;;;;;5052805;28;20021;-76
2021/08/21 08:51:15;;;;;;;6.60;4.30;;;23.20;99.90;;;;;;5053072;28;20032;-75
2021/08/21 08:53:41;;;;;;;4.80;4.00;;;23.20;99.90;;;;;;5052702;28;20033;-75
2021/08/21 08:56:06;;;;;;;5.88;3.88;;;23.50;99.90;;;;;;5052342;28;20025;-75
2021/08/21 08:58:32;;;;;;;4.25;3.85;;;23.70;99.90;;;;;;5052460;28;20547;-75
2021/08/21 09:00:59;;;;;;;3.60;3.30;;;23.80;99.90;;;;;;5051296;28;20032;-75
2021/08/21 09:03:27;;;;;;;4.43;3.63;;;23.80;99.90;;;;;;5051270;28;20540;-75
2021/08/21 09:05:54;;;;;;;4.80;3.65;;;23.70;99.90;;;;;;5052473;28;20074;-75
2021/08/21 09:08:27;;;;;;;4.63;3.67;;;24.00;99.90;;;;;;5050978;28;20074;-74
2021/08/21 09:10:55;;;;;;;4.68;3.28;;;24.10;99.90;;;;;;5052117;28;20542;-76
2021/08/21 09:13:22;;;;;;;8.77;4.45;;;24.00;99.90;;;;;;5050882;28;20032;-76
2021/08/21 09:15:50;;;;;;;4.28;3.55;;;23.90;99.90;;;;;;5050924;28;20021;-76
2021/08/21 09:18:21;;;;;;;3.53;3.22;;;23.80;99.90;;;;;;5051358;28;20079;-76
2021/08/21 09:20:47;;;;;;;4.13;3.53;;;24.20;99.90;;;;;;5052279;28;20547;-75
2021/08/21 09:23:23;;;;;;;4.85;3.70;;;24.40;99.90;;;;;;5052791;28;20025;-75
2021/08/21 09:25:51;;;;;;;4.32;3.60;;;24.40;99.90;;;;;;5050864;28;20025;-74
2021/08/21 09:28:25;;;;;;;7.43;3.40;;;24.40;99.90;;;;;;5050870;28;20029;-74
2021/08/21 09:31:05;;;;;;;3.88;3.50;;;24.60;99.90;;;;;;5050756;28;20017;-75
2021/08/21 09:33:32;;;;;;;4.45;3.90;;;24.70;99.90;;;;;;5071498;28;20480;-75
2021/08/21 09:35:59;;;;;;;3.97;3.30;;;24.50;99.90;;;;;;5070646;28;20028;-76
2021/08/21 09:38:28;;;;;;;4.45;3.88;;;24.70;99.90;;;;;;5070556;28;20023;-76
2021/08/21 09:41:02;;;;;;;4.50;3.75;;;24.80;99.90;;;;;;5071904;28;20090;-75
2021/08/21 09:43:31;;;;;;;4.65;3.78;;;24.90;99.90;;;;;;5070790;28;20035;-76
2021/08/21 09:46:15;;;;;;;4.20;3.30;;;24.80;99.90;;;;;;5070427;28;20063;-75
2021/08/21 09:48:53;;;;;;;4.75;3.70;;;25.10;99.90;;;;;;5071727;28;20446;-75
2021/08/21 09:51:38;;;;;;;3.85;3.45;;;25.30;99.90;;;;;;5070379;28;20025;-76
2021/08/21 09:54:06;;;;;;;5.50;3.85;;;25.00;99.90;;;;;;5071816;28;20488;-76
2021/08/21 09:56:36;;;;;;;3.95;3.60;;;25.40;99.90;;;;;;5071510;28;20074;-74
2021/08/21 09:59:03;;;;;;;5.97;3.28;;;25.50;99.90;;;;;;5070639;28;20035;-76
2021/08/21 10:01:30;;;;;;;3.97;3.50;;;25.30;99.90;;;;;;5060496;28;20033;-75
2021/08/21 10:03:56;;;;;;;4.95;3.85;;;25.60;99.90;;;;;;5051824;28;20457;-75
2021/08/21 10:06:24;;;;;;;4.22;3.80;;;25.70;99.90;;;;;;5051828;28;20462;-76
2021/08/21 10:08:56;;;;;;;4.90;3.78;;;25.70;99.90;;;;;;5051855;28;20025;-76
2021/08/21 10:11:22;;;;;;;3.80;3.40;;;25.60;99.90;;;;;;5050373;28;20050;-76
2021/08/21 10:13:48;;;;;;;6.68;3.42;;;25.60;99.90;;;;;;5051340;28;20086;-76
2021/08/21 10:16:15;;;;;;;4.00;3.60;;;25.80;99.90;;;;;;5051279;28;20017;-77
2021/08/21 10:18:47;;;;;;;5.70;3.45;;;25.80;99.90;;;;;;5051483;28;20021;-75
2021/08/21 10:21:14;;;;;;;4.88;3.60;;;25.90;99.90;;;;;;5050297;28;20029;-76
2021/08/21 10:23:44;;;;;;;5.18;3.40;;;25.90;99.90;;;;;;5051399;28;20048;-75
2021/08/21 10:26:33;;;;;;;4.78;4.07;;;26.00;99.90;;;;;;5049898;28;20510;-76
2021/08/21 10:29:00;;;;;;;4.15;3.53;;;26.20;99.90;;;;;;5051292;28;20037;-76
2021/08/21 10:31:37;;;;;;;5.00;3.65;;;26.20;99.90;;;;;;5051415;28;20100;-76
2021/08/21 10:34:04;;;;;;;4.20;3.75;;;26.20;99.90;;;;;;5053704;28;20029;-75
2021/08/21 10:37:01;;;;;;;3.95;3.33;;;26.40;99.90;;;;;;5054026;28;20036;-76
2021/08/21 10:39:40;;;;;;;6.80;3.88;;;26.70;99.90;;;;;;5055691;28;20028;-76
2021/08/21 10:42:20;;;;;;;5.50;3.58;;;26.80;99.90;;;;;;5055347;28;20017;-76
2021/08/21 10:44:50;;;;;;;4.43;3.70;;;26.80;99.90;;;;;;5055121;28;20059;-75
2021/08/21 10:47:31;;;;;;;4.45;3.80;;;26.70;99.90;;;;;;5054774;28;20029;-76
2021/08/21 10:49:58;;;;;;;4.10;3.70;;;26.80;99.90;;;;;;5055039;28;20448;-75
2021/08/21 10:52:47;;;;;;;5.28;3.63;;;26.90;99.90;;;;;;5053678;28;20037;-76
2021/08/21 10:55:19;;;;;;;4.20;3.80;;;26.80;99.90;;;;;;5053233;28;20055;-75
2021/08/21 10:58:01;;;;;;;4.57;3.50;;;26.80;99.90;;;;;;5054773;28;20308;-76
2021/08/21 11:00:57;;;;;;;5.10;4.00;;;26.60;99.90;;;;;;5054633;28;20029;-75
2021/08/21 11:03:23;;;;;;;5.10;4.25;;;26.70;99.90;;;;;;5054756;28;20100;-77
2021/08/21 11:06:07;;;;;;;5.22;3.53;;;26.40;99.90;;;;;;5054760;28;20449;-77
2021/08/21 11:08:35;;;;;;;4.07;3.63;;;26.50;99.90;;;;;;5054741;28;20071;-76
2021/08/21 11:11:10;;;;;;;6.18;4.07;;;26.70;99.90;;;;;;5054624;28;20021;-76
2021/08/21 11:14:11;;;;;;;6.07;4.05;;;27.10;99.90;;;;;;5054477;28;20029;-75
2021/08/21 11:16:54;;;;;;;4.10;3.70;;;27.40;99.90;;;;;;5054734;28;20056;-77
2021/08/21 11:19:28;;;;;;;4.30;3.90;;;27.40;99.90;;;;;;5052994;28;20029;-75
2021/08/21 11:22:14;;;;;;;4.68;4.22;;;27.20;99.90;;;;;;5054335;28;20040;-75
2021/08/21 11:24:59;;;;;;;4.35;3.95;;;27.40;99.90;;;;;;5052882;28;20484;-75
2021/08/21 11:27:25;;;;;;;5.32;4.00;;;27.40;99.90;;;;;;5052943;28;20123;-75
2021/08/21 11:32:51;;;;;;;;;;;27.70;99.90;;;;;;5054720;28;20082;-75
2021/08/21 11:35:35;;;;;;;5.00;3.53;;;27.80;99.90;;;;;;5063886;28;19997;-76
2021/08/21 11:38:02;;;;;;;4.47;3.88;;;28.00;98.70;;;;;;5074093;28;20551;-76
2021/08/21 11:40:36;;;;;;;5.22;3.88;;;28.20;99.00;;;;;;5073962;28;20265;-75
2021/08/21 11:43:04;;;;;;;4.07;3.67;;;28.10;99.00;;;;;;5073951;28;20021;-74
2021/08/21 11:45:31;;;;;;;6.25;4.00;;;28.20;97.90;;;;;;5073837;28;20028;-76
2021/08/21 11:47:57;;;;;;;4.57;4.07;;;28.20;97.80;;;;;;5074235;28;20020;-78
2021/08/21 11:50:40;;;;;;;4.75;3.42;;;28.20;98.10;;;;;;5072895;28;20024;-76
2021/08/21 11:53:11;;;;;;;3.80;3.42;;;28.40;97.60;;;;;;5074226;28;20028;-78
2021/08/21 11:55:38;;;;;;;9.50;3.58;;;28.40;97.20;;;;;;5072509;28;20115;-75
2021/08/21 11:58:08;;;;;;;4.93;3.30;;;28.00;97.30;;;;;;5074084;28;20051;-75
2021/08/21 12:00:40;;;;;;;4.50;3.85;;;28.10;97.00;;;;;;5070200;28;20029;-75
2021/08/21 12:03:08;;;;;;;4.15;3.40;;;28.30;97.10;;;;;;5053649;28;20021;-75
2021/08/21 12:05:37;;;;;;;3.95;3.42;;;28.50;97.50;;;;;;5052264;28;20493;-77
2021/08/21 12:08:15;;;;;;;4.70;3.40;;;28.50;96.60;;;;;;5053481;28;20114;-75
2021/08/21 12:10:51;;;;;;;4.47;3.67;;;28.70;96.50;;;;;;5053337;28;20166;-76
2021/08/21 12:13:38;;;;;;;4.05;3.42;;;28.50;95.50;;;;;;5053240;28;20110;-77
2021/08/21 12:16:13;;;;;;;3.55;3.10;;;28.50;95.40;;;;;;5051438;28;20492;-76
2021/08/21 12:18:40;;;;;;;3.47;3.17;;;28.60;95.40;;;;;;5053891;28;20082;-76
2021/08/21 12:21:08;;;;;;;5.78;3.47;;;28.30;95.90;;;;;;5053437;28;20051;-77
2021/08/21 12:23:37;;;;;;;3.55;3.17;;;28.50;96.40;;;;;;5053167;28;20115;-75
2021/08/21 12:26:04;;;;;;;4.57;3.13;;;28.60;95.60;;;;;;5051825;28;20036;-76
2021/08/21 12:28:44;;;;;;;2.97;2.78;;;28.70;95.10;;;;;;5051814;28;20123;-75
2021/08/21 12:31:16;;;;;;;2.90;2.67;;;28.90;94.30;;;;;;5053880;28;20037;-75
2021/08/21 12:33:55;;;;;;;3.30;2.97;;;29.00;93.50;;;;;;5051719;28;20029;-75
2021/08/21 12:36:24;;;;;;;3.30;3.00;;;29.00;93.60;;;;;;5053139;28;20025;-74
2021/08/21 12:39:08;;;;;;;3.07;2.77;;;29.10;93.30;;;;;;5052806;28;20496;-76
2021/08/21 12:41:54;;;;;;;3.03;2.72;;;29.20;92.70;;;;;;5053290;28;20351;-76
2021/08/21 12:44:32;;;;;;;3.08;2.88;;;29.10;93.30;;;;;;5052685;28;20500;-76
2021/08/21 12:46:59;;;;;;;3.97;2.80;;;29.20;93.50;;;;;;5072317;28;20027;-75
2021/08/21 12:49:29;;;;;;;3.33;3.03;;;28.80;93.00;;;;;;5074935;28;20017;-75
2021/08/21 12:51:57;;;;;;;3.38;3.03;;;28.50;93.10;;;;;;5053773;28;20447;-76
2021/08/21 12:54:35;;;;;;;3.40;3.10;;;28.60;93.60;;;;;;5052290;28;20158;-75